Data for 11/29/2009

Time Sea-Level Adjusted Pressure Absolute Pressure Temperature Relative Humidity Dew Point   
(mb) (inHg) (mb) (inHg) (C) (F) (%) (C) (F)
00:05 1021 30.15 850 25.1 -1.6 29.2 63 -7.7 18.2
00:10 1021 30.15 850 25.1 -1.4 29.4 63 -7.5 18.4
00:15 1021 30.15 850 25.1 -1.4 29.4 63 -7.5 18.5
00:20 1021 30.15 850 25.1 -1.4 29.5 65 -7.2 19.1
00:25 1021 30.15 850 25.1 -1.4 29.5 62 -7.8 18
00:30 1021 30.15 850 25.1 -0.7 30.8 59 -7.8 18
00:35 1021 30.15 850 25.1 -0.2 31.7 57 -7.8 18
00:40 1021 30.15 850 25.1 0.4 32.6 54 -7.8 18
00:45 1021 30.15 850 25.1 0.7 33.2 55 -7.4 18.7
00:50 1021 30.15 850 25.1 0.9 33.6 54 -7.4 18.7
00:55 1021 30.15 850 25.1 0.9 33.6 54 -7.3 18.8
01:00 1021 30.15 850 25.1 0.9 33.6 56 -6.9 19.5
01:05 1021 30.15 850 25.1 0.9 33.6 55 -7.1 19.1
01:10 1021 30.15 850 25.1 1 33.9 56 -6.8 19.8
01:15 1021 30.15 850 25.1 0.7 33.2 58 -6.7 19.9
01:20 1021 30.15 850 25.1 0.2 32.3 60 -6.6 20
01:25 1021 30.15 851 25.13 -0.1 31.8 61 -6.8 19.8
01:30 1021 30.15 851 25.13 -0.3 31.5 61 -6.9 19.5
01:35 1021 30.15 851 25.13 -0.5 31.1 63 -6.8 19.8
01:40 1021 30.15 851 25.13 -0.6 30.9 64 -6.7 20
01:45 1021 30.15 851 25.13 -0.7 30.8 63 -6.8 19.8
01:50 1022 30.18 851 25.13 -0.6 30.9 63 -6.9 19.7
01:55 1022 30.18 851 25.13 -0.5 31.1 62 -7 19.5
02:00 1022 30.18 851 25.13 -0.4 31.3 62 -6.8 19.8
02:05 1022 30.18 851 25.13 -0.3 31.5 61 -6.9 19.6
02:10 1022 30.18 851 25.13 -0.3 31.5 62 -6.7 19.9
02:15 1022 30.18 851 25.13 -0.1 31.8 60 -7 19.4
02:20 1022 30.18 851 25.13 -0 32 60 -6.8 19.8
02:25 1022 30.18 851 25.13 -0 32 59 -7.2 19.1
02:30 1022 30.18 851 25.13 0.1 32.2 58 -7.1 19.2
02:35 1022 30.18 851 25.13 0.1 32.2 58 -7.1 19.2
02:40 1022 30.18 851 25.13 0.1 32.1 58 -7.2 19
02:45 1022 30.18 851 25.13 0 32.1 58 -7.3 18.9
02:50 1022 30.18 851 25.13 -0 32 59 -7 19.3
02:55 1022 30.18 851 25.13 -0.1 31.8 58 -7.5 18.6
03:00 1022 30.18 851 25.13 -0 31.9 57 -7.6 18.2
03:05 1022 30.18 851 25.13 0 32 56 -7.7 18.2
03:10 1022 30.18 851 25.13 0.1 32.1 58 -7.3 18.9
03:15 1022 30.18 851 25.13 0 32.1 58 -7.3 18.9
03:20 1022 30.18 851 25.13 -0 32 59 -7.1 19.2
03:25 1022 30.18 851 25.13 -0.1 31.9 59 -7.1 19.2
03:30 1022 30.18 851 25.13 -0.3 31.5 61 -6.9 19.5
03:35 1022 30.18 851 25.13 -0.4 31.2 59 -7.5 18.5
03:40 1022 30.18 851 25.13 -0.3 31.5 58 -7.6 18.4
03:45 1022 30.18 851 25.13 -0.1 31.8 58 -7.5 18.5
03:50 1022 30.18 851 25.13 -0 32 57 -7.5 18.6
03:55 1022 30.18 851 25.13 0.1 32.3 58 -7.1 19.3
04:00 1022 30.18 851 25.13 0.1 32.2 60 -6.7 19.9
04:05 1022 30.18 851 25.13 0 32 60 -6.9 19.6
04:10 1022 30.18 851 25.13 0 32.1 61 -6.6 20.1
04:15 1022 30.18 851 25.13 -0 32 61 -6.6 20.1
04:20 1022 30.18 851 25.13 0.2 32.3 60 -6.7 20
04:25 1022 30.18 851 25.13 0.4 32.7 60 -6.5 20.4
04:30 1022 30.18 851 25.13 0.4 32.8 61 -6.2 20.9
04:35 1022 30.18 851 25.13 0.3 32.5 62 -6.1 21
04:40 1022 30.18 851 25.13 0.1 32.2 63 -6.1 21.1
04:45 1022 30.18 851 25.13 -0.1 31.8 63 -6.3 20.7
04:50 1022 30.18 851 25.13 -0.2 31.6 63 -6.4 20.4
04:55 1022 30.18 851 25.13 -0.4 31.4 63 -6.7 20
05:00 1022 30.18 851 25.13 -0.3 31.5 63 -6.6 20.2
05:05 1022 30.18 851 25.13 -0.3 31.4 64 -6.2 20.8
05:10 1022 30.18 851 25.13 -0.4 31.2 65 -6.1 21
05:15 1022 30.18 851 25.13 -0.5 31.1 66 -6.1 21
05:20 1022 30.18 851 25.13 -0.6 30.9 66 -6.1 21
05:25 1022 30.18 851 25.13 -0.6 31 65 -6.3 20.7
05:30 1022 30.18 851 25.13 -0.5 31 64 -6.4 20.4
05:35 1022 30.18 851 25.13 -0.4 31.2 65 -6.3 20.7
05:40 1022 30.18 851 25.13 -0.5 31.1 65 -6.4 20.6
05:45 1022 30.18 851 25.13 -0.6 31 64 -6.5 20.3
05:50 1022 30.18 851 25.13 -0.6 31 65 -6.4 20.5
05:55 1022 30.18 851 25.13 -0.5 31.1 65 -6.4 20.5
06:00 1022 30.18 851 25.13 -0.4 31.3 63 -6.7 20
06:05 1022 30.18 851 25.13 -0.2 31.7 64 -6.2 20.8
06:10 1022 30.18 851 25.13 -0.2 31.6 64 -6.3 20.7
06:15 1022 30.18 851 25.13 -0.3 31.4 67 -5.8 21.6
06:20 1022 30.18 851 25.13 -0.3 31.4 65 -6.2 20.8
06:25 1022 30.18 851 25.13 -0.4 31.3 65 -6.1 21
06:30 1022 30.18 851 25.13 -0.4 31.2 65 -6.1 21
06:35 1022 30.18 851 25.13 -0.4 31.2 65 -6.2 20.8
06:40 1022 30.18 851 25.13 -0.4 31.2 65 -6.2 20.8
06:45 1022 30.18 851 25.13 -0.3 31.4 64 -6.3 20.6
06:50 1022 30.18 851 25.13 -0.2 31.6 64 -6.3 20.6
06:55 1022 30.18 851 25.13 -0.2 31.6 65 -6.1 21
07:00 1022 30.18 851 25.13 -0.2 31.7 62 -6.5 20.3
07:05 1022 30.18 851 25.13 -0.1 31.9 61 -6.7 19.9
07:10 1022 30.18 852 25.16 0.1 32.1 61 -6.5 20.3
07:15 1022 30.18 852 25.16 0.1 32.2 61 -6.5 20.2
07:20 1022 30.18 852 25.16 0.1 32.1 62 -6.3 20.7
07:25 1023 30.21 852 25.16 -0.1 31.8 64 -6.1 21
07:30 1023 30.21 852 25.16 -0.3 31.4 65 -6 21.1
07:35 1023 30.21 852 25.16 -0.4 31.2 67 -5.9 21.3
07:40 1023 30.21 852 25.16 -0.5 31.1 66 -6.1 21
07:45 1023 30.21 852 25.16 -0.4 31.3 64 -6.3 20.6
07:50 1023 30.21 852 25.16 -0.3 31.5 65 -6.1 21
07:55 1023 30.21 852 25.16 -0.4 31.2 66 -6 21.1
08:00 1023 30.21 852 25.16 -0.6 30.9 66 -6.2 20.8
08:05 1023 30.21 852 25.16 -0.4 31.4 64 -6.4 20.6
08:10 1023 30.21 852 25.16 -0.1 31.8 62 -6.5 20.3
08:15 1023 30.21 852 25.16 0.1 32.3 61 -6.6 20.2
08:20 1023 30.21 852 25.16 0.5 32.8 58 -6.9 19.6
08:25 1023 30.21 852 25.16 0.7 33.3 56 -7.1 19.2
08:30 1023 30.21 852 25.16 1 33.7 58 -6.4 20.4
08:35 1023 30.21 852 25.16 1 33.9 57 -6.6 20.1
08:40 1023 30.21 852 25.16 1.1 33.9 57 -6.6 20.2
08:45 1023 30.21 852 25.16 0.8 33.5 58 -6.5 20.3
08:50 1023 30.21 852 25.16 0.9 33.7 57 -6.7 19.9
08:55 1023 30.21 852 25.16 1 33.9 56 -6.7 19.9
09:00 1023 30.21 852 25.16 1 33.8 58 -6.3 20.6
09:05 1023 30.21 852 25.16 1.1 34 57 -6.5 20.3
09:10 1023 30.21 852 25.16 1.3 34.3 55 -6.7 19.9
09:15 1023 30.21 852 25.16 1.4 34.5 56 -6.5 20.3
09:20 1023 30.21 852 25.16 1.4 34.6 55 -6.6 20.1
09:25 1023 30.21 852 25.16 1.5 34.7 55 -6.5 20.3
09:30 1023 30.21 852 25.16 1.5 34.8 54 -6.7 19.9
09:35 1023 30.21 852 25.16 1.6 34.9 56 -6.2 20.8
09:40 1023 30.21 852 25.16 1.6 34.9 57 -6.1 21
09:45 1023 30.21 852 25.16 1.5 34.8 58 -5.9 21.4
09:50 1023 30.21 852 25.16 1.6 34.8 57 -6.1 21
09:55 1023 30.21 852 25.16 1.6 34.9 58 -5.8 21.5
10:00 1023 30.21 852 25.16 1.7 35 55 -6.5 20.3
10:05 1023 30.21 853 25.19 1.7 35 56 -6.2 20.8
10:10 1024 30.24 853 25.19 1.6 34.8 57 -6 21.2
10:15 1024 30.24 853 25.19 1.5 34.8 56 -6.2 20.8
10:20 1024 30.24 853 25.19 1.6 34.9 57 -6 21.2
10:25 1024 30.24 853 25.19 1.7 35 57 -5.9 21.4
10:30 1024 30.24 853 25.19 1.7 35 57 -6 21.1
10:35 1024 30.24 853 25.19 1.7 35 58 -5.7 21.7
10:40 1024 30.24 853 25.19 1.6 34.8 59 -5.7 21.7
10:45 1024 30.24 853 25.19 1.4 34.6 58 -5.9 21.5
10:50 1024 30.24 853 25.19 1.5 34.7 60 -5.5 22.1
10:55 1024 30.24 853 25.19 1.7 35.1 57 -5.8 21.6
11:00 1024 30.24 853 25.19 1.7 35.1 57 -6 21.2
11:05 1024 30.24 853 25.19 1.4 34.5 59 -5.8 21.5
11:10 1024 30.24 853 25.19 1.4 34.5 58 -5.9 21.4
11:15 1024 30.24 853 25.19 1.7 35.1 55 -6.3 20.7
11:20 1024 30.24 853 25.19 2 35.6 57 -5.6 22
11:25 1024 30.24 853 25.19 2.3 36.1 56 -5.7 21.8
11:30 1024 30.24 853 25.19 2.3 36.1 56 -5.6 21.9
11:35 1024 30.24 853 25.19 2.5 36.4 53 -6.1 21
11:40 1024 30.24 853 25.19 2.5 36.6 53 -6 21.1
11:45 1024 30.24 853 25.19 2.5 36.6 54 -5.9 21.5
11:50 1024 30.24 853 25.19 2.8 37 52 -6.2 20.9
11:55 1024 30.24 853 25.19 2.8 37.1 52 -6.1 21.1
12:00 1024 30.24 853 25.19 3.1 37.5 52 -5.9 21.4
12:05 1023 30.21 853 25.19 3.3 37.9 51 -5.8 21.5
12:10 1023 30.21 853 25.19 3.2 37.7 53 -5.5 22
12:15 1023 30.21 853 25.19 3 37.4 53 -5.6 21.8
12:20 1023 30.21 853 25.19 2.9 37.2 53 -5.8 21.6
12:25 1023 30.21 853 25.19 3.3 37.9 50 -6.1 21.1
12:30 1023 30.21 853 25.19 3.4 38.1 51 -5.8 21.6
12:35 1023 30.21 853 25.19 3.5 38.3 51 -5.8 21.5
12:40 1024 30.24 853 25.19 3.5 38.3 49 -6.1 21
12:45 1024 30.24 853 25.19 3.6 38.5 49 -6.2 20.9
12:50 1023 30.21 853 25.19 3.6 38.5 51 -5.7 21.8
12:55 1023 30.21 853 25.19 3.8 38.9 47 -6.5 20.3
13:00 1023 30.21 853 25.19 4 39.1 47 -6.3 20.6
13:05 1024 30.24 853 25.19 3.9 39 47 -6.4 20.4
13:10 1023 30.21 853 25.19 3.8 38.8 48 -6.3 20.6
13:15 1023 30.21 853 25.19 4.2 39.5 46 -6.6 20.1
13:20 1023 30.21 853 25.19 4.5 40.1 46 -6.2 20.8
13:25 1023 30.21 853 25.19 4.3 39.8 46 -6.3 20.7
13:30 1023 30.21 853 25.19 4.3 39.7 46 -6.5 20.4
13:35 1023 30.21 853 25.19 4.5 40.1 45 -6.4 20.5
13:40 1023 30.21 853 25.19 4.9 40.8 45 -6.1 20.9
13:45 1023 30.21 852 25.16 4.9 40.8 46 -5.8 21.6
13:50 1023 30.21 852 25.16 4.1 39.4 48 -5.9 21.3
13:55 1023 30.21 852 25.16 5.2 41.3 44 -6.2 20.8
14:00 1023 30.21 852 25.16 6.1 43.1 41 -6 21.1
14:05 1023 30.21 852 25.16 6.8 44.3 41 -5.5 22.1
14:10 1023 30.21 852 25.16 6 42.9 42 -5.8 21.5
14:15 1023 30.21 853 25.19 6 42.7 44 -5.4 22.4
14:20 1023 30.21 853 25.19 5.1 41.2 47 -5.4 22.4
14:25 1024 30.24 853 25.19 4.8 40.7 47 -5.4 22.2
14:30 1024 30.24 853 25.19 4.7 40.5 48 -5.4 22.3
14:35 1024 30.24 853 25.19 4.7 40.5 48 -5.4 22.3
14:40 1023 30.21 853 25.19 4.7 40.5 48 -5.5 22.2
14:45 1023 30.21 853 25.19 4.9 40.8 47 -5.5 22
14:50 1023 30.21 853 25.19 4.8 40.7 47 -5.5 22.1
14:55 1023 30.21 853 25.19 4.7 40.4 53 -4.2 24.4
15:00 1023 30.21 853 25.19 3.4 38.1 53 -5.3 22.4
15:05 1023 30.21 853 25.19 3 37.5 54 -5.3 22.4
15:10 1023 30.21 853 25.19 3 37.4 55 -5.2 22.6
15:15 1023 30.21 852 25.16 2.8 37 55 -5.3 22.5
15:20 1023 30.21 853 25.19 3.1 37.6 54 -5.3 22.5
15:25 1023 30.21 852 25.16 3.6 38.4 50 -5.9 21.4
15:30 1023 30.21 852 25.16 3.7 38.6 52 -5.4 22.3
15:35 1023 30.21 852 25.16 3.9 39 51 -5.3 22.4
15:40 1023 30.21 852 25.16 3.8 38.9 53 -4.9 23.1
15:45 1023 30.21 852 25.16 3.7 38.7 54 -4.7 23.5
15:50 1023 30.21 852 25.16 3.5 38.4 55 -4.6 23.6
15:55 1023 30.21 852 25.16 3.3 38 54 -5.1 22.8
16:00 1023 30.21 852 25.16 3.4 38.2 54 -5.1 22.8
16:05 1023 30.21 852 25.16 3.5 38.2 54 -5 23.1
16:10 1023 30.21 852 25.16 3.3 38 55 -4.8 23.4
16:15 1023 30.21 852 25.16 3.2 37.7 56 -4.8 23.4
16:20 1023 30.21 852 25.16 3.1 37.6 55 -5.1 22.9
16:25 1023 30.21 852 25.16 3.3 37.9 56 -4.7 23.6
16:30 1023 30.21 852 25.16 3.1 37.7 58 -4.4 24.1
16:35 1023 30.21 852 25.16 2.9 37.3 59 -4.4 24.1
16:40 1023 30.21 852 25.16 3 37.3 59 -4.3 24.2
16:45 1023 30.21 852 25.16 2.9 37.2 60 -4.2 24.5
16:50 1023 30.21 852 25.16 2.5 36.4 59 -4.7 23.5
16:55 1023 30.21 852 25.16 2.5 36.5 58 -5 23
17:00 1023 30.21 852 25.16 2.7 36.8 58 -4.8 23.3
17:05 1023 30.21 852 25.16 2.6 36.7 59 -4.6 23.7
17:10 1023 30.21 852 25.16 2.6 36.7 58 -4.7 23.5
17:15 1023 30.21 852 25.16 2.6 36.7 60 -4.4 24
17:20 1023 30.21 852 25.16 2.6 36.6 60 -4.5 23.9
17:25 1023 30.21 852 25.16 2.6 36.7 57 -5.1 22.9
17:30 1023 30.21 853 25.19 2.8 37 56 -5.1 22.9
17:35 1023 30.21 853 25.19 2.7 36.8 57 -5 23
17:40 1023 30.21 852 25.16 2.8 37 58 -4.7 23.5
17:45 1023 30.21 852 25.16 2.7 36.8 57 -5 23
17:50 1023 30.21 852 25.16 2.8 37 60 -4.3 24.2
17:55 1023 30.21 852 25.16 2.5 36.5 62 -4.1 24.6
18:00 1023 30.21 852 25.16 1.8 35.3 65 -4.1 24.7
18:05 1023 30.21 852 25.16 1.1 34 64 -4.8 23.3
18:10 1023 30.21 852 25.16 1.2 34.1 65 -4.7 23.5
18:15 1023 30.21 852 25.16 1 33.7 65 -4.9 23.2
18:20 1023 30.21 852 25.16 0.7 33.2 66 -4.9 23.2
18:25 1023 30.21 852 25.16 0.7 33.3 65 -5.2 22.6
18:30 1023 30.21 852 25.16 1 33.8 65 -4.8 23.4
18:35 1023 30.21 853 25.19 0.7 33.3 67 -4.7 23.5
18:40 1023 30.21 853 25.19 0.5 33 67 -4.9 23.2
18:45 1023 30.21 853 25.19 0.6 33 67 -4.9 23.1
18:50 1023 30.21 853 25.19 0.6 33.1 66 -5 23.1
18:55 1023 30.21 853 25.19 0.5 32.9 69 -4.6 23.8
19:00 1023 30.21 853 25.19 0.3 32.6 69 -4.7 23.6
19:05 1023 30.21 853 25.19 0.6 33.2 70 -4.2 24.4
19:10 1023 30.21 853 25.19 0.9 33.6 69 -4.2 24.4
19:15 1024 30.24 853 25.19 0.8 33.4 71 -3.9 25
19:20 1023 30.21 853 25.19 0.3 32.6 72 -4.2 24.5
19:25 1023 30.21 853 25.19 0.2 32.4 73 -4.1 24.5
19:30 1023 30.21 853 25.19 0 32 74 -4 24.7
19:35 1023 30.21 853 25.19 -0.1 31.8 73 -4.3 24.2
19:40 1023 30.21 853 25.19 -0 32 72 -4.4 24
19:45 1024 30.24 853 25.19 0.2 32.4 72 -4.3 24.3
19:50 1024 30.24 853 25.19 0 32.1 74 -4 24.8
19:55 1024 30.24 853 25.19 -0 31.9 73 -4.3 24.3
20:00 1024 30.24 853 25.19 0.2 32.3 73 -4.2 24.5
20:05 1024 30.24 853 25.19 0.2 32.3 73 -4.2 24.5
20:10 1024 30.24 853 25.19 -0.3 31.5 74 -4.4 24
20:15 1024 30.24 853 25.19 -0.5 31.1 73 -4.8 23.4
20:20 1024 30.24 853 25.19 -1.6 29.2 77 -5.1 22.8
20:25 1024 30.24 853 25.19 -1.8 28.8 76 -5.5 22
20:30 1024 30.24 853 25.19 -1.8 28.8 76 -5.5 22.1
20:35 1024 30.24 853 25.19 -1.5 29.3 74 -5.5 22
20:40 1024 30.24 853 25.19 -0.9 30.3 72 -5.5 22.2
20:45 1024 30.24 853 25.19 -0.7 30.8 72 -5.2 22.7
20:50 1024 30.24 853 25.19 -1 30.1 74 -5.1 22.9
20:55 1024 30.24 853 25.19 -0.9 30.4 73 -5.1 22.8
21:00 1023 30.21 853 25.19 -0.8 30.6 73 -4.9 23.1
21:05 1024 30.24 853 25.19 -0.8 30.6 74 -4.8 23.4
21:10 1024 30.24 853 25.19 -0.7 30.7 74 -4.9 23.2
21:15 1024 30.24 853 25.19 -0.7 30.8 74 -4.8 23.4
21:20 1024 30.24 853 25.19 -0.6 30.9 74 -4.7 23.6
21:25 1023 30.21 853 25.19 -0.5 31.1 73 -4.8 23.4
21:30 1023 30.21 853 25.19 -0.5 31.1 73 -4.7 23.6
21:35 1024 30.24 853 25.19 -0.3 31.5 73 -4.6 23.7
21:40 1024 30.24 853 25.19 -0.4 31.2 73 -4.7 23.5
21:45 1024 30.24 853 25.19 -0.4 31.3 72 -4.8 23.3
21:50 1024 30.24 853 25.19 -0.3 31.4 73 -4.7 23.6
21:55 1024 30.24 853 25.19 -0.3 31.5 71 -4.9 23.2
22:00 1024 30.24 853 25.19 -0.4 31.3 71 -5 23
22:05 1024 30.24 853 25.19 -0.4 31.3 71 -5 23
22:10 1024 30.24 853 25.19 -0.9 30.4 72 -5.4 22.2
22:15 1024 30.24 853 25.19 -1.2 29.9 73 -5.4 22.3
22:20 1023 30.21 853 25.19 -1.5 29.4 75 -5.3 22.5
22:25 1023 30.21 853 25.19 -1.3 29.7 75 -5.2 22.7
22:30 1023 30.21 853 25.19 -1.3 29.6 75 -5.3 22.5
22:35 1023 30.21 853 25.19 -1.1 30 74 -5.1 22.7
22:40 1023 30.21 853 25.19 -1.6 29.1 77 -5.2 22.6
22:45 1023 30.21 853 25.19 -1.6 29.2 75 -5.5 22.2
22:50 1023 30.21 853 25.19 -1.2 29.8 75 -5.1 22.7
22:55 1023 30.21 852 25.16 -1.1 30.1 76 -4.8 23.3
23:00 1023 30.21 852 25.16 -1.1 30 75 -5 23
23:05 1023 30.21 852 25.16 -0.8 30.6 74 -4.8 23.4
23:10 1023 30.21 852 25.16 -0.4 31.3 73 -4.7 23.5
23:15 1023 30.21 852 25.16 -0.2 31.6 71 -4.8 23.4
23:20 1023 30.21 852 25.16 -0.2 31.7 71 -4.8 23.3
23:25 1023 30.21 852 25.16 -0 32 70 -4.8 23.3
23:30 1023 30.21 852 25.16 -0.1 31.9 71 -4.8 23.4
23:35 1023 30.21 852 25.16 -0.1 31.9 70 -4.8 23.3
23:40 1023 30.21 852 25.16 -0 32 70 -4.9 23.2
23:45 1023 30.21 852 25.16 -0.1 31.8 70 -4.9 23.1
23:50 1023 30.21 852 25.16 -0.2 31.6 71 -4.9 23.1
23:55 1023 30.21 852 25.16 -0.2 31.6 70 -5 23
24:00 1023 30.21 852 25.16 -0.2 31.7 70 -5 23